createdAt,value
2022-08-17T00:01:51.421Z,24.80
2022-08-17T00:04:19.978Z,22.40
2022-08-17T00:06:49.093Z,26.40
2022-08-17T00:09:18.809Z,21.00
2022-08-17T00:12:41.620Z,21.20
2022-08-17T00:14:35.093Z,18.20
2022-08-17T00:17:03.958Z,18.40
2022-08-17T00:19:32.815Z,17.20
2022-08-17T00:22:34.097Z,18.40
2022-08-17T00:24:50.718Z,21.20
2022-08-17T00:27:18.747Z,21.20
2022-08-17T00:29:46.933Z,19.20
2022-08-17T00:33:14.307Z,20.80
2022-08-17T00:35:02.382Z,22.00
2022-08-17T00:37:30.051Z,15.40
2022-08-17T00:39:58.043Z,20.60
2022-08-17T00:42:30.782Z,24.60
2022-08-17T00:44:58.841Z,21.60
2022-08-17T00:47:26.624Z,21.40
2022-08-17T00:49:54.293Z,20.00
2022-08-17T00:52:23.165Z,12.40
2022-08-17T00:54:52.367Z,18.80
2022-08-17T00:57:20.180Z,14.60
2022-08-17T00:59:55.950Z,20.60
2022-08-17T01:02:35.005Z,21.20
2022-08-17T01:05:19.035Z,20.40
2022-08-17T01:07:46.967Z,20.80
2022-08-17T01:10:57.103Z,17.80
2022-08-17T01:13:03.449Z,19.20
2022-08-17T01:15:31.515Z,21.60
2022-08-17T01:18:00.220Z,20.60
2022-08-17T01:20:27.910Z,19.00
2022-08-17T01:22:55.612Z,21.60
2022-08-17T01:25:23.467Z,15.80
2022-08-17T01:27:51.793Z,15.80
2022-08-17T01:30:56.652Z,21.60
2022-08-17T01:33:11.538Z,16.20
2022-08-17T01:35:39.202Z,19.40
2022-08-17T01:38:06.910Z,19.60
2022-08-17T01:40:35.324Z,18.00
2022-08-17T01:43:03.033Z,15.80
2022-08-17T01:45:32.248Z,21.00
2022-08-17T01:47:59.902Z,18.60
2022-08-17T01:50:27.854Z,20.80
2022-08-17T01:52:55.579Z,20.80
2022-08-17T01:55:27.239Z,20.60
2022-08-17T01:57:55.221Z,22.00
2022-08-17T02:00:23.191Z,19.40
2022-08-17T02:02:50.939Z,23.60
2022-08-17T02:05:18.725Z,21.00
2022-08-17T02:07:47.955Z,24.25
2022-08-17T02:10:33.643Z,17.25
2022-08-17T02:13:02.350Z,20.40
2022-08-17T02:15:30.099Z,18.25
2022-08-17T02:17:57.789Z,16.75
2022-08-17T02:20:41.684Z,22.25
2022-08-17T02:23:10.610Z,15.00
2022-08-17T02:25:38.288Z,22.25
2022-08-17T02:28:06.183Z,17.20
2022-08-17T02:31:01.582Z,21.50
2022-08-17T02:33:21.776Z,20.25
2022-08-17T02:35:49.832Z,21.20
2022-08-17T02:38:17.545Z,20.25
2022-08-17T02:40:45.679Z,17.20
2022-08-17T02:43:14.735Z,18.00
2022-08-17T02:45:42.539Z,17.00
2022-08-17T02:48:10.274Z,24.25
2022-08-17T02:50:38.636Z,19.25
2022-08-17T02:53:06.485Z,19.50
2022-08-17T02:55:35.013Z,17.50
2022-08-17T02:58:03.864Z,14.75
2022-08-17T03:00:34.083Z,19.00
2022-08-17T03:03:01.818Z,16.60
2022-08-17T03:05:29.416Z,16.75
2022-08-17T03:07:57.171Z,17.75
2022-08-17T03:10:25.700Z,19.75
2022-08-17T03:12:53.376Z,19.25
2022-08-17T03:15:21.030Z,16.50
2022-08-17T03:17:48.733Z,22.25
2022-08-17T03:20:17.366Z,19.50
2022-08-17T03:22:47.891Z,19.50
2022-08-17T03:25:22.595Z,20.00
2022-08-17T03:27:51.525Z,19.50
2022-08-17T03:30:19.724Z,22.00
2022-08-17T03:32:48.928Z,16.20
2022-08-17T03:35:16.523Z,21.20
2022-08-17T03:37:46.508Z,19.50
2022-08-17T03:40:14.504Z,16.75
2022-08-17T03:42:42.347Z,20.50
2022-08-17T03:45:09.941Z,19.25
2022-08-17T03:47:55.148Z,17.00
2022-08-17T03:50:40.017Z,19.80
2022-08-17T03:53:25.321Z,24.25
2022-08-17T03:56:10.165Z,20.00
2022-08-17T03:58:38.193Z,16.00
2022-08-17T04:01:06.183Z,19.75
2022-08-17T04:03:33.975Z,19.00
2022-08-17T04:06:02.397Z,19.50
2022-08-17T04:08:30.114Z,16.25
2022-08-17T04:10:58.007Z,18.25
2022-08-17T04:13:25.777Z,18.00
2022-08-17T04:15:53.413Z,13.25
2022-08-17T04:18:21.069Z,16.00
2022-08-17T04:20:48.804Z,18.25
2022-08-17T04:23:16.507Z,13.50
2022-08-17T04:25:45.174Z,16.75
2022-08-17T04:28:16.005Z,17.75
2022-08-17T04:30:45.317Z,15.50
2022-08-17T04:33:14.256Z,13.25
2022-08-17T04:35:42.131Z,18.25
2022-08-17T04:38:09.832Z,17.50
2022-08-17T04:40:55.398Z,21.25
2022-08-17T04:43:23.073Z,18.00
2022-08-17T04:45:55.023Z,15.00
2022-08-17T04:48:33.400Z,16.00
2022-08-17T04:51:03.831Z,15.75
2022-08-17T04:53:31.502Z,17.75
2022-08-17T04:55:59.460Z,14.25
2022-08-17T04:58:27.475Z,14.75
2022-08-17T05:00:55.164Z,23.75
2022-08-17T05:03:22.893Z,16.00
2022-08-17T05:05:50.550Z,17.25
2022-08-17T05:08:18.286Z,17.50
2022-08-17T05:10:46.160Z,17.25
2022-08-17T05:13:15.587Z,17.25
2022-08-17T05:15:44.856Z,20.00
2022-08-17T05:18:13.047Z,20.25
2022-08-17T05:20:40.942Z,16.75
2022-08-17T05:23:08.590Z,20.00
2022-08-17T05:25:36.302Z,20.50
2022-08-17T05:28:05.140Z,16.25
2022-08-17T05:30:34.238Z,16.50
2022-08-17T05:33:01.948Z,18.75
2022-08-17T05:35:29.601Z,18.50
2022-08-17T05:37:57.299Z,16.00
2022-08-17T05:40:26.066Z,17.25
2022-08-17T05:42:53.786Z,17.40
2022-08-17T05:45:46.089Z,7.00
2022-08-17T05:48:10.459Z,21.00
2022-08-17T05:50:38.374Z,18.00
2022-08-17T05:53:06.498Z,20.00
2022-08-17T05:55:34.479Z,22.00
2022-08-17T05:58:02.506Z,15.20
2022-08-17T06:00:31.251Z,15.00
2022-08-17T06:02:58.962Z,16.00
2022-08-17T06:05:26.680Z,18.20
2022-08-17T06:07:54.648Z,18.60
2022-08-17T06:10:22.299Z,12.40
2022-08-17T06:12:50.201Z,15.20
2022-08-17T06:15:19.561Z,17.40
2022-08-17T06:17:47.162Z,18.00
2022-08-17T06:20:14.899Z,10.20
2022-08-17T06:22:42.637Z,15.60
2022-08-17T06:25:10.952Z,18.00
2022-08-17T06:27:38.695Z,16.00
2022-08-17T06:30:09.357Z,12.80
2022-08-17T06:32:38.248Z,18.20
2022-08-17T06:35:07.124Z,16.80
2022-08-17T06:37:34.826Z,13.60
2022-08-17T06:40:02.993Z,13.40
2022-08-17T06:43:02.190Z,18.00
2022-08-17T06:45:18.413Z,16.40
2022-08-17T06:47:47.673Z,12.60
2022-08-17T06:50:15.900Z,14.60
2022-08-17T06:52:56.058Z,14.80
2022-08-17T06:55:23.907Z,9.00
2022-08-17T06:57:51.677Z,12.00
2022-08-17T07:00:19.395Z,13.00
2022-08-17T07:02:53.068Z,14.40
2022-08-17T07:05:21.125Z,12.20
2022-08-17T07:08:04.989Z,13.20
2022-08-17T07:10:32.738Z,11.80
2022-08-17T07:13:00.397Z,13.00
2022-08-17T07:15:28.127Z,13.60
2022-08-17T07:17:56.340Z,14.80
2022-08-17T07:20:24.078Z,13.40
2022-08-17T07:22:59.638Z,13.20
2022-08-17T07:25:30.811Z,13.80
2022-08-17T07:27:59.921Z,11.00
2022-08-17T07:30:27.588Z,12.20
2022-08-17T07:32:57.549Z,15.60
2022-08-17T07:35:37.690Z,14.60
2022-08-17T07:38:25.506Z,13.80
2022-08-17T07:40:57.804Z,12.00
2022-08-17T07:43:25.792Z,15.60
2022-08-17T07:46:11.349Z,12.00
2022-08-17T07:48:39.126Z,15.20
2022-08-17T07:51:06.850Z,13.00
2022-08-17T07:53:34.757Z,11.40
2022-08-17T07:56:02.715Z,9.40
2022-08-17T07:58:30.365Z,8.40
2022-08-17T08:00:59.268Z,8.20
2022-08-17T08:03:31.990Z,8.40
2022-08-17T08:06:00.465Z,12.60
2022-08-17T08:08:28.643Z,12.20
2022-08-17T08:10:56.360Z,14.20
2022-08-17T08:13:24.064Z,7.20
2022-08-17T08:15:53.458Z,8.00
2022-08-17T08:18:53.286Z,10.40
2022-08-17T08:21:10.263Z,10.00
2022-08-17T08:23:38.483Z,11.20
2022-08-17T08:26:06.519Z,10.20
2022-08-17T08:28:35.867Z,11.80
2022-08-17T08:31:03.811Z,8.40
2022-08-17T08:33:32.174Z,11.20
2022-08-17T08:35:59.875Z,10.80
2022-08-17T08:38:28.260Z,9.60
2022-08-17T08:40:56.307Z,8.00
2022-08-17T08:43:24.640Z,9.20
2022-08-17T08:45:52.523Z,9.40
2022-08-17T08:48:23.014Z,11.00
2022-08-17T08:51:08.603Z,8.40
2022-08-17T08:53:39.262Z,9.00
2022-08-17T08:56:07.178Z,9.80
2022-08-17T08:58:41.330Z,7.00
2022-08-17T09:01:16.710Z,11.60
2022-08-17T09:03:52.918Z,10.80
2022-08-17T09:06:33.357Z,13.80
2022-08-17T09:09:07.343Z,12.60
2022-08-17T09:11:35.748Z,12.00
2022-08-17T09:14:28.598Z,9.80
2022-08-17T09:16:57.114Z,10.00
2022-08-17T09:19:30.599Z,12.80
2022-08-17T09:21:58.272Z,11.00
2022-08-17T09:24:26.958Z,11.00
2022-08-17T09:26:55.673Z,10.00
2022-08-17T09:29:25.572Z,11.00
2022-08-17T09:31:53.580Z,10.60
2022-08-17T09:34:21.516Z,9.00
2022-08-17T09:36:56.244Z,12.00
2022-08-17T09:39:23.894Z,10.00
2022-08-17T09:41:53.503Z,9.00
2022-08-17T09:44:24.026Z,10.00
2022-08-17T09:46:51.958Z,11.20
2022-08-17T09:49:24.633Z,10.40
2022-08-17T09:51:53.221Z,10.00
2022-08-17T09:54:38.525Z,8.00
2022-08-17T09:57:28.633Z,9.60
2022-08-17T09:59:55.499Z,10.00
2022-08-17T10:02:23.198Z,7.40
2022-08-17T10:04:50.817Z,9.00
2022-08-17T10:07:18.908Z,8.00
2022-08-17T10:09:46.635Z,10.60
2022-08-17T10:12:21.588Z,9.20
2022-08-17T10:14:57.641Z,10.40
2022-08-17T10:17:36.510Z,7.00
2022-08-17T10:20:04.186Z,9.60
2022-08-17T10:22:53.195Z,9.40
2022-08-17T10:25:54.016Z,4.00
2022-08-17T10:28:28.940Z,13.00
2022-08-17T10:31:16.536Z,11.80
2022-08-17T10:33:44.726Z,12.80
2022-08-17T10:36:12.461Z,11.20
2022-08-17T10:38:40.207Z,10.60
2022-08-17T10:41:07.868Z,9.20
2022-08-17T10:43:35.871Z,9.40
2022-08-17T10:46:21.308Z,9.00
2022-08-17T10:48:51.781Z,8.20
2022-08-17T10:51:20.709Z,9.20
2022-08-17T10:53:48.570Z,11.20
2022-08-17T10:56:17.713Z,7.80
2022-08-17T10:58:45.841Z,12.80
2022-08-17T11:01:13.515Z,10.60
2022-08-17T11:03:41.666Z,10.20
2022-08-17T11:06:12.856Z,13.40
2022-08-17T11:08:40.728Z,14.40
2022-08-17T11:11:08.718Z,13.00
2022-08-17T11:13:37.809Z,9.80
2022-08-17T11:16:08.541Z,9.00
2022-08-17T11:18:36.714Z,11.80
2022-08-17T11:21:04.683Z,9.60
2022-08-17T11:23:33.223Z,12.00
2022-08-17T11:26:08.346Z,11.80
2022-08-17T11:28:36.072Z,11.40
2022-08-17T11:31:04.118Z,12.00
2022-08-17T11:33:36.912Z,14.40
2022-08-17T11:36:06.594Z,9.80
2022-08-17T11:38:34.237Z,15.00
2022-08-17T11:41:02.661Z,13.20
2022-08-17T11:43:32.237Z,13.00
2022-08-17T11:46:01.466Z,13.00
2022-08-17T11:48:46.648Z,12.40
2022-08-17T11:51:34.930Z,13.60
2022-08-17T11:54:30.974Z,14.00
2022-08-17T11:56:50.453Z,13.80
2022-08-17T11:59:19.861Z,12.60
2022-08-17T12:01:47.567Z,14.40
2022-08-17T12:04:15.300Z,15.60
2022-08-17T12:06:43.146Z,13.60
2022-08-17T12:09:10.961Z,16.40
2022-08-17T12:11:58.665Z,15.20
2022-08-17T12:14:45.022Z,14.00
2022-08-17T12:17:14.416Z,14.20
2022-08-17T12:19:57.341Z,13.20
2022-08-17T12:22:26.661Z,15.00
2022-08-17T12:24:54.830Z,13.00
2022-08-17T12:28:02.064Z,16.40
2022-08-17T12:30:10.676Z,17.20
2022-08-17T12:32:40.807Z,15.20
2022-08-17T12:35:08.939Z,16.20
2022-08-17T12:37:36.888Z,18.40
2022-08-17T12:40:04.732Z,18.20
2022-08-17T12:42:33.167Z,18.40
2022-08-17T12:45:01.193Z,18.80
2022-08-17T12:47:30.220Z,16.60
2022-08-17T12:49:59.493Z,19.00
2022-08-17T12:52:27.228Z,17.00
2022-08-17T12:54:55.145Z,16.80
2022-08-17T12:57:22.831Z,18.00
2022-08-17T12:59:50.465Z,16.40
2022-08-17T13:02:18.188Z,15.80
2022-08-17T13:04:45.806Z,19.20
2022-08-17T13:07:13.864Z,17.80
2022-08-17T13:09:41.805Z,14.60
2022-08-17T13:12:09.566Z,15.00
2022-08-17T13:14:37.274Z,17.00
2022-08-17T13:17:11.034Z,20.80
2022-08-17T13:19:48.302Z,22.00
2022-08-17T13:22:16.111Z,18.00
2022-08-17T13:24:44.195Z,16.80
2022-08-17T13:27:11.967Z,16.60
2022-08-17T13:29:39.974Z,17.60
2022-08-17T13:32:13.000Z,19.80
2022-08-17T13:35:12.959Z,16.00
2022-08-17T13:37:30.426Z,16.80
2022-08-17T13:39:58.178Z,17.40
2022-08-17T13:42:25.937Z,20.20
2022-08-17T13:44:53.942Z,20.60
2022-08-17T13:47:22.197Z,13.00
2022-08-17T13:49:49.885Z,23.60
2022-08-17T13:52:19.727Z,23.40
2022-08-17T13:54:55.612Z,21.00
2022-08-17T13:57:23.697Z,25.60
2022-08-17T13:59:55.158Z,25.20
2022-08-17T14:02:23.476Z,27.80
2022-08-17T14:04:56.385Z,26.00
2022-08-17T14:07:24.143Z,26.60
2022-08-17T14:09:52.151Z,28.60
2022-08-17T14:12:19.808Z,26.60
2022-08-17T14:14:47.510Z,28.60
2022-08-17T14:17:15.306Z,29.80
2022-08-17T14:19:43.239Z,27.80
2022-08-17T14:22:11.822Z,27.00
2022-08-17T14:24:44.697Z,24.80
2022-08-17T14:27:13.169Z,23.20
2022-08-17T14:29:41.459Z,27.40
2022-08-17T14:32:09.292Z,29.80
2022-08-17T14:34:36.981Z,35.00
2022-08-17T14:37:05.971Z,30.80
2022-08-17T14:39:34.067Z,28.80
2022-08-17T14:42:01.843Z,27.40
2022-08-17T14:44:30.242Z,27.60
2022-08-17T14:46:57.944Z,29.80
2022-08-17T14:49:26.160Z,29.80
2022-08-17T14:51:54.220Z,34.40
2022-08-17T14:54:34.362Z,36.00
2022-08-17T14:57:22.454Z,27.20
2022-08-17T14:59:54.228Z,37.60
2022-08-17T15:02:23.085Z,35.00
2022-08-17T15:04:58.056Z,31.40
2022-08-17T15:07:30.417Z,33.00
2022-08-17T15:10:00.487Z,31.60
2022-08-17T15:12:32.403Z,32.00
2022-08-17T15:15:01.042Z,34.80
2022-08-17T15:17:43.937Z,32.00
2022-08-17T15:20:15.020Z,38.20
2022-08-17T15:22:43.386Z,40.80
2022-08-17T15:25:11.246Z,36.60
2022-08-17T15:27:39.233Z,40.40
2022-08-17T15:30:07.413Z,36.20
2022-08-17T15:32:35.202Z,42.60
2022-08-17T15:35:03.037Z,31.40
2022-08-17T15:37:32.012Z,42.00
2022-08-17T15:40:00.849Z,40.00
2022-08-17T15:42:29.398Z,38.00
2022-08-17T15:44:57.220Z,41.00
2022-08-17T15:47:25.302Z,36.40
2022-08-17T15:49:57.935Z,36.40
2022-08-17T15:52:27.706Z,37.80
2022-08-17T15:54:55.364Z,39.00
2022-08-17T15:57:24.224Z,43.40
2022-08-17T15:59:55.104Z,43.20
2022-08-17T16:03:14.979Z,43.00
2022-08-17T16:05:14.582Z,42.20
2022-08-17T16:07:45.195Z,50.60
2022-08-17T16:10:18.308Z,51.20
2022-08-17T16:12:46.920Z,57.20
2022-08-17T16:15:14.857Z,47.40
2022-08-17T16:17:42.794Z,47.80
2022-08-17T16:20:19.928Z,50.40
2022-08-17T16:22:48.657Z,44.00
2022-08-17T16:25:16.786Z,42.40
2022-08-17T16:27:44.584Z,41.60
2022-08-17T16:30:16.935Z,45.60
2022-08-17T16:32:45.201Z,45.20
2022-08-17T16:35:14.442Z,42.60
2022-08-17T16:37:45.462Z,51.80
2022-08-17T16:40:13.688Z,47.80
2022-08-17T16:42:41.684Z,47.40
2022-08-17T16:45:09.929Z,51.80
2022-08-17T16:47:37.780Z,43.60
2022-08-17T16:50:05.480Z,46.60
2022-08-17T16:52:33.758Z,46.20
2022-08-17T16:55:01.716Z,46.60
2022-08-17T16:57:29.933Z,45.20
2022-08-17T16:59:57.637Z,50.20
2022-08-17T17:02:25.355Z,49.60
2022-08-17T17:04:53.094Z,50.20
2022-08-17T17:07:20.827Z,45.80
2022-08-17T17:09:52.674Z,45.80
2022-08-17T17:12:34.973Z,42.00
2022-08-17T17:15:08.185Z,43.80
2022-08-17T17:17:36.261Z,44.80
2022-08-17T17:20:04.027Z,45.60
2022-08-17T17:22:31.740Z,50.60
2022-08-17T17:24:59.656Z,47.40
2022-08-17T17:27:29.669Z,56.60
2022-08-17T17:29:57.423Z,57.40
2022-08-17T17:32:25.207Z,54.60
2022-08-17T17:34:52.873Z,60.20
2022-08-17T17:37:20.600Z,58.20
2022-08-17T17:39:49.190Z,56.20
2022-08-17T17:42:20.292Z,57.40
2022-08-17T17:44:48.115Z,56.00
2022-08-17T17:47:17.089Z,57.20
2022-08-17T17:49:45.141Z,54.00
2022-08-17T17:52:18.445Z,52.60
2022-08-17T17:54:46.972Z,60.60
2022-08-17T17:57:14.657Z,59.20
2022-08-17T17:59:44.216Z,61.80
2022-08-17T18:02:12.202Z,55.40
2022-08-17T18:04:40.932Z,53.40
2022-08-17T18:07:10.082Z,58.40
2022-08-17T18:09:39.145Z,57.00
2022-08-17T18:12:08.998Z,58.20
2022-08-17T18:14:37.081Z,59.60
2022-08-17T18:17:04.733Z,56.60
2022-08-17T18:19:32.787Z,54.20
2022-08-17T18:22:00.920Z,56.00
2022-08-17T18:24:28.661Z,60.60
2022-08-17T18:26:56.533Z,57.80
2022-08-17T18:29:24.999Z,56.00
2022-08-17T18:31:52.822Z,52.80
2022-08-17T18:34:45.771Z,58.80
2022-08-17T18:37:11.271Z,55.60
2022-08-17T18:39:44.255Z,56.00
2022-08-17T18:42:13.147Z,56.00
2022-08-17T18:44:40.863Z,52.60
2022-08-17T18:47:08.597Z,53.20
2022-08-17T18:49:36.652Z,60.60
2022-08-17T18:52:04.369Z,60.60
2022-08-17T18:54:32.536Z,60.80
2022-08-17T18:57:00.321Z,50.60
2022-08-17T18:59:28.464Z,55.80
2022-08-17T19:01:58.483Z,52.20
2022-08-17T19:04:26.994Z,50.00
2022-08-17T19:07:00.483Z,50.60
2022-08-17T19:09:28.508Z,53.60
2022-08-17T19:11:56.187Z,53.40
2022-08-17T19:14:25.923Z,45.60
2022-08-17T19:16:53.648Z,52.80
2022-08-17T19:19:21.654Z,50.60
2022-08-17T19:21:49.413Z,49.00
2022-08-17T19:24:19.607Z,43.20
2022-08-17T19:26:53.608Z,52.60
2022-08-17T19:29:23.865Z,52.40
2022-08-17T19:31:51.533Z,54.00
2022-08-17T19:34:30.183Z,42.20
2022-08-17T19:37:01.986Z,48.40
2022-08-17T19:39:38.628Z,42.40
2022-08-17T19:42:06.555Z,49.00
2022-08-17T19:44:34.511Z,50.60
2022-08-17T19:47:02.733Z,43.80
2022-08-17T19:49:40.687Z,45.80
2022-08-17T19:52:10.258Z,46.80
2022-08-17T19:54:38.189Z,52.80
2022-08-17T19:57:05.976Z,47.40
2022-08-17T19:59:35.956Z,58.40
2022-08-17T20:02:04.493Z,49.80
2022-08-17T20:04:32.615Z,41.80
2022-08-17T20:07:00.555Z,47.75
2022-08-17T20:09:29.633Z,48.80
2022-08-17T20:12:01.462Z,54.80
2022-08-17T20:14:29.096Z,47.00
2022-08-17T20:17:01.878Z,55.50
2022-08-17T20:19:30.667Z,42.50
2022-08-17T20:21:58.415Z,46.00
2022-08-17T20:24:26.088Z,47.50
2022-08-17T20:26:58.144Z,58.25
2022-08-17T20:29:31.896Z,50.00
2022-08-17T20:32:05.749Z,38.25
2022-08-17T20:34:37.408Z,51.50
2022-08-17T20:37:06.134Z,60.50
2022-08-17T20:39:38.116Z,58.25
2022-08-17T20:42:05.907Z,56.25
2022-08-17T20:44:33.756Z,55.75
2022-08-17T20:47:01.622Z,55.25
2022-08-17T20:49:29.407Z,47.25
2022-08-17T20:52:01.698Z,51.25
2022-08-17T20:54:30.517Z,50.00
2022-08-17T20:56:58.420Z,59.25
2022-08-17T20:59:27.705Z,50.40
2022-08-17T21:01:55.453Z,54.00
2022-08-17T21:04:23.098Z,35.40
2022-08-17T21:06:50.724Z,42.60
2022-08-17T21:09:18.784Z,50.50
2022-08-17T21:12:03.262Z,55.80
2022-08-17T21:14:32.891Z,46.00
2022-08-17T21:17:01.466Z,57.75
2022-08-17T21:19:31.207Z,55.20
2022-08-17T21:21:59.213Z,46.00
2022-08-17T21:24:26.955Z,42.60
2022-08-17T21:26:55.605Z,48.00
2022-08-17T21:29:31.376Z,56.00
2022-08-17T21:32:00.616Z,52.25
2022-08-17T21:34:28.447Z,49.25
2022-08-17T21:36:57.062Z,45.75
2022-08-17T21:39:30.651Z,54.50
2022-08-17T21:42:00.976Z,50.75
2022-08-17T21:44:31.180Z,46.00
2022-08-17T21:46:59.073Z,46.00
2022-08-17T21:49:26.777Z,46.50
2022-08-17T21:51:54.568Z,48.75
2022-08-17T21:54:22.557Z,55.75
2022-08-17T21:56:50.244Z,49.50
2022-08-17T21:59:18.330Z,52.50
2022-08-17T22:01:46.018Z,55.25
2022-08-17T22:04:18.333Z,45.50
2022-08-17T22:06:56.678Z,41.25
2022-08-17T22:09:25.859Z,56.75
2022-08-17T22:11:53.490Z,58.25
2022-08-17T22:14:21.786Z,40.25
2022-08-17T22:16:50.751Z,49.75
2022-08-17T22:19:20.493Z,49.25
2022-08-17T22:21:48.179Z,52.75
2022-08-17T22:24:14.860Z,52.25
2022-08-17T22:26:42.788Z,54.25
2022-08-17T22:29:10.546Z,57.50
2022-08-17T22:31:38.246Z,47.00
2022-08-17T22:34:06.839Z,46.25
2022-08-17T22:36:34.683Z,43.00
2022-08-17T22:39:02.687Z,58.25
2022-08-17T22:41:32.170Z,47.25
2022-08-17T22:44:02.522Z,57.25
2022-08-17T22:46:30.386Z,56.50
2022-08-17T22:48:59.509Z,51.25
2022-08-17T22:51:27.434Z,43.00
2022-08-17T22:54:12.504Z,43.00
2022-08-17T22:56:57.724Z,48.00
2022-08-17T22:59:27.382Z,47.25
2022-08-17T23:01:55.053Z,49.00
2022-08-17T23:04:22.802Z,50.00
2022-08-17T23:06:50.423Z,48.25
2022-08-17T23:09:18.431Z,45.75
2022-08-17T23:11:50.051Z,48.50
2022-08-17T23:14:19.308Z,43.25
2022-08-17T23:16:47.017Z,65.00
2022-08-17T23:19:15.516Z,43.00
2022-08-17T23:21:44.892Z,44.50
2022-08-17T23:24:13.754Z,47.25
2022-08-17T23:26:41.438Z,49.00
2022-08-17T23:29:09.560Z,52.00
2022-08-17T23:31:37.369Z,62.75
2022-08-17T23:34:05.021Z,52.75
2022-08-17T23:36:35.384Z,65.25
2022-08-17T23:39:03.309Z,58.75
2022-08-17T23:41:31.763Z,41.75
2022-08-17T23:43:59.396Z,52.25
2022-08-17T23:46:27.060Z,52.25
2022-08-17T23:48:55.016Z,58.75
2022-08-17T23:51:22.760Z,41.00
2022-08-17T23:53:50.426Z,51.75
2022-08-17T23:56:24.088Z,43.25
2022-08-17T23:58:51.766Z,51.75
